sensor_id;sensor_type;location;lat;lon;timestamp;pressure;altitude;pressure_sealevel;temperature;humidity
51781;BME280;37844;57.126;24.288;2023-07-31T00:02:42;100666.97;;;16.78;100.00
51781;BME280;37844;57.126;24.288;2023-07-31T00:05:26;100655.72;;;16.79;100.00
51781;BME280;37844;57.126;24.288;2023-07-31T00:08:10;100657.41;;;16.81;100.00
51781;BME280;37844;57.126;24.288;2023-07-31T00:10:54;100654.81;;;16.78;100.00
51781;BME280;37844;57.126;24.288;2023-07-31T00:13:38;100648.69;;;16.84;100.00
51781;BME280;37844;57.126;24.288;2023-07-31T00:16:22;100648.69;;;16.85;100.00
51781;BME280;37844;57.126;24.288;2023-07-31T00:19:06;100648.56;;;16.91;100.00
51781;BME280;37844;57.126;24.288;2023-07-31T00:21:50;100656.31;;;16.98;100.00
51781;BME280;37844;57.126;24.288;2023-07-31T00:24:34;100651.09;;;16.96;100.00
51781;BME280;37844;57.126;24.288;2023-07-31T00:27:18;100653.03;;;16.85;100.00
51781;BME280;37844;57.126;24.288;2023-07-31T00:30:02;100650.38;;;16.88;100.00
51781;BME280;37844;57.126;24.288;2023-07-31T00:32:47;100652.06;;;16.90;100.00
51781;BME280;37844;57.126;24.288;2023-07-31T00:35:31;100662.63;;;16.80;100.00
51781;BME280;37844;57.126;24.288;2023-07-31T00:38:15;100653.97;;;16.78;100.00
51781;BME280;37844;57.126;24.288;2023-07-31T00:40:59;100657.41;;;16.83;100.00
51781;BME280;37844;57.126;24.288;2023-07-31T00:43:43;100663.47;;;16.82;100.00
51781;BME280;37844;57.126;24.288;2023-07-31T00:46:27;100663.44;;;16.85;100.00
51781;BME280;37844;57.126;24.288;2023-07-31T00:49:11;100653.03;;;16.83;100.00
51781;BME280;37844;57.126;24.288;2023-07-31T00:51:56;100659.19;;;16.78;100.00
51781;BME280;37844;57.126;24.288;2023-07-31T00:54:41;100662.69;;;16.72;100.00
51781;BME280;37844;57.126;24.288;2023-07-31T00:57:26;100666.97;;;16.79;100.00
51781;BME280;37844;57.126;24.288;2023-07-31T01:00:10;100665.38;;;16.67;100.00
51781;BME280;37844;57.126;24.288;2023-07-31T01:02:55;100666.22;;;16.68;100.00
51781;BME280;37844;57.126;24.288;2023-07-31T01:09:16;100666.22;;;16.69;100.00
51781;BME280;37844;57.126;24.288;2023-07-31T01:12:07;100665.34;;;16.70;100.00
51781;BME280;37844;57.126;24.288;2023-07-31T01:15:11;100666.06;;;16.82;100.00
51781;BME280;37844;57.126;24.288;2023-07-31T01:17:55;100661.84;;;16.73;100.00
51781;BME280;37844;57.126;24.288;2023-07-31T01:20:41;100667.84;;;16.77;100.00
51781;BME280;37844;57.126;24.288;2023-07-31T01:26:49;100636.72;;;16.69;100.00
51781;BME280;37844;57.126;24.288;2023-07-31T01:29:45;100648.78;;;16.74;100.00
51781;BME280;37844;57.126;24.288;2023-07-31T01:32:31;100647.88;;;16.77;100.00
51781;BME280;37844;57.126;24.288;2023-07-31T01:35:16;100646.13;;;16.81;100.00
51781;BME280;37844;57.126;24.288;2023-07-31T01:38:00;100647.81;;;16.85;100.00
51781;BME280;37844;57.126;24.288;2023-07-31T01:40:44;100644.31;;;16.87;100.00
51781;BME280;37844;57.126;24.288;2023-07-31T01:43:28;100652.94;;;16.91;100.00
51781;BME280;37844;57.126;24.288;2023-07-31T01:46:12;100652.06;;;16.92;100.00
51781;BME280;37844;57.126;24.288;2023-07-31T01:48:57;100647.69;;;16.92;100.00
51781;BME280;37844;57.126;24.288;2023-07-31T01:51:41;100641.72;;;16.86;100.00
51781;BME280;37844;57.126;24.288;2023-07-31T01:54:25;100637.50;;;16.79;100.00
51781;BME280;37844;57.126;24.288;2023-07-31T01:57:09;100634.88;;;16.79;100.00
51781;BME280;37844;57.126;24.288;2023-07-31T01:59:53;100637.47;;;16.77;100.00
51781;BME280;37844;57.126;24.288;2023-07-31T02:02:37;100645.41;;;16.68;100.00
51781;BME280;37844;57.126;24.288;2023-07-31T02:05:21;100645.44;;;16.65;100.00
51781;BME280;37844;57.126;24.288;2023-07-31T02:08:04;100650.66;;;16.66;100.00
51781;BME280;37844;57.126;24.288;2023-07-31T02:10:48;100645.47;;;16.63;100.00
51781;BME280;37844;57.126;24.288;2023-07-31T02:13:32;100650.66;;;16.66;100.00
51781;BME280;37844;57.126;24.288;2023-07-31T02:16:16;100638.59;;;16.59;100.00
51781;BME280;37844;57.126;24.288;2023-07-31T02:19:00;100633.47;;;16.53;100.00
51781;BME280;37844;57.126;24.288;2023-07-31T02:21:44;100640.41;;;16.54;100.00
51781;BME280;37844;57.126;24.288;2023-07-31T02:24:28;100649.13;;;16.50;100.00
51781;BME280;37844;57.126;24.288;2023-07-31T02:27:12;100645.63;;;16.51;100.00
51781;BME280;37844;57.126;24.288;2023-07-31T02:29:56;100643.88;;;16.54;100.00
51781;BME280;37844;57.126;24.288;2023-07-31T02:32:43;100643.88;;;16.54;100.00
51781;BME280;37844;57.126;24.288;2023-07-31T02:35:27;100649.13;;;16.51;100.00
51781;BME280;37844;57.126;24.288;2023-07-31T02:38:11;100648.22;;;16.54;100.00
51781;BME280;37844;57.126;24.288;2023-07-31T02:40:55;100653.44;;;16.52;100.00
51781;BME280;37844;57.126;24.288;2023-07-31T02:43:39;100650.88;;;16.49;100.00
51781;BME280;37844;57.126;24.288;2023-07-31T02:46:23;100640.59;;;16.40;100.00
51781;BME280;37844;57.126;24.288;2023-07-31T02:49:08;100644.88;;;16.43;100.00
51781;BME280;37844;57.126;24.288;2023-07-31T02:51:52;100648.38;;;16.40;100.00
51781;BME280;37844;57.126;24.288;2023-07-31T02:54:36;100651.00;;;16.40;100.00
51781;BME280;37844;57.126;24.288;2023-07-31T02:57:20;100659.66;;;16.41;100.00
51781;BME280;37844;57.126;24.288;2023-07-31T03:00:05;100657.94;;;16.38;100.00
51781;BME280;37844;57.126;24.288;2023-07-31T03:02:50;100665.75;;;16.38;100.00
51781;BME280;37844;57.126;24.288;2023-07-31T03:05:34;100666.59;;;16.37;100.00
51781;BME280;37844;57.126;24.288;2023-07-31T03:08:18;100663.13;;;16.40;100.00
51781;BME280;37844;57.126;24.288;2023-07-31T03:11:02;100664.84;;;16.41;100.00
51781;BME280;37844;57.126;24.288;2023-07-31T03:13:46;100670.09;;;16.38;100.00
51781;BME280;37844;57.126;24.288;2023-07-31T03:16:30;100659.69;;;16.38;100.00
51781;BME280;37844;57.126;24.288;2023-07-31T03:19:14;100661.44;;;16.36;100.00
51781;BME280;37844;57.126;24.288;2023-07-31T03:21:59;100670.16;;;16.33;100.00
51781;BME280;37844;57.126;24.288;2023-07-31T03:24:43;100668.41;;;16.33;100.00
51781;BME280;37844;57.126;24.288;2023-07-31T03:27:27;100661.41;;;16.37;100.00
51781;BME280;37844;57.126;24.288;2023-07-31T03:30:11;100657.91;;;16.41;100.00
51781;BME280;37844;57.126;24.288;2023-07-31T03:32:55;100659.63;;;16.42;100.00
51781;BME280;37844;57.126;24.288;2023-07-31T03:35:39;100659.63;;;16.42;100.00
51781;BME280;37844;57.126;24.288;2023-07-31T03:38:23;100654.44;;;16.42;100.00
51781;BME280;37844;57.126;24.288;2023-07-31T03:41:07;100672.66;;;16.41;100.00
51781;BME280;37844;57.126;24.288;2023-07-31T03:43:54;100659.59;;;16.44;100.00
51781;BME280;37844;57.126;24.288;2023-07-31T03:46:41;100671.63;;;16.54;100.00
51781;BME280;37844;57.126;24.288;2023-07-31T03:49:26;100666.44;;;16.54;100.00
51781;BME280;37844;57.126;24.288;2023-07-31T03:52:10;100667.19;;;16.61;100.00
51781;BME280;37844;57.126;24.288;2023-07-31T03:54:54;100665.47;;;16.61;100.00
51781;BME280;37844;57.126;24.288;2023-07-31T03:57:38;100668.06;;;16.61;100.00
51781;BME280;37844;57.126;24.288;2023-07-31T04:00:22;100671.47;;;16.63;100.00
51781;BME280;37844;57.126;24.288;2023-07-31T04:03:06;100663.66;;;16.66;100.00
51781;BME280;37844;57.126;24.288;2023-07-31T04:05:51;100665.38;;;16.67;100.00
51781;BME280;37844;57.126;24.288;2023-07-31T04:08:34;100667.84;;;16.78;100.00
51781;BME280;37844;57.126;24.288;2023-07-31T04:11:18;100673.84;;;16.85;100.00
51781;BME280;37844;57.126;24.288;2023-07-31T04:14:03;100669.38;;;16.93;100.00
51781;BME280;37844;57.126;24.288;2023-07-31T04:16:47;100671.94;;;16.98;100.00
51781;BME280;37844;57.126;24.288;2023-07-31T04:19:31;100667.44;;;17.06;100.00
51781;BME280;37844;57.126;24.288;2023-07-31T04:22:15;100664.81;;;17.09;100.00
51781;BME280;37844;57.126;24.288;2023-07-31T04:24:59;100668.22;;;17.14;100.00
51781;BME280;37844;57.126;24.288;2023-07-31T04:27:43;100668.06;;;17.23;100.00
51781;BME280;37844;57.126;24.288;2023-07-31T04:30:34;100671.44;;;17.30;100.00
51781;BME280;37844;57.126;24.288;2023-07-31T04:33:18;100679.00;;;17.44;100.00
51781;BME280;37844;57.126;24.288;2023-07-31T04:36:02;100672.81;;;17.51;100.00
51781;BME280;37844;57.126;24.288;2023-07-31T04:38:47;100669.25;;;17.56;100.00
51781;BME280;37844;57.126;24.288;2023-07-31T04:41:31;100674.34;;;17.64;100.00
51781;BME280;37844;57.126;24.288;2023-07-31T04:44:15;100667.44;;;17.62;100.00
51781;BME280;37844;57.126;24.288;2023-07-31T04:46:59;100665.69;;;17.62;100.00
51781;BME280;37844;57.126;24.288;2023-07-31T04:49:43;100667.53;;;17.55;100.00
51781;BME280;37844;57.126;24.288;2023-07-31T04:52:27;100674.50;;;17.53;100.00
51781;BME280;37844;57.126;24.288;2023-07-31T04:55:10;100670.13;;;17.57;100.00
51781;BME280;37844;57.126;24.288;2023-07-31T04:57:55;100660.59;;;17.54;100.00
51781;BME280;37844;57.126;24.288;2023-07-31T05:00:38;100657.16;;;17.54;100.00
51781;BME280;37844;57.126;24.288;2023-07-31T05:03:22;100662.28;;;17.57;100.00
51781;BME280;37844;57.126;24.288;2023-07-31T05:06:06;100653.63;;;17.56;100.00
51781;BME280;37844;57.126;24.288;2023-07-31T05:08:50;100657.84;;;17.64;100.00
51781;BME280;37844;57.126;24.288;2023-07-31T05:11:35;100656.06;;;17.66;100.00
51781;BME280;37844;57.126;24.288;2023-07-31T05:14:19;100661.13;;;17.75;100.00
51781;BME280;37844;57.126;24.288;2023-07-31T05:17:04;100667.00;;;17.86;100.00
51781;BME280;37844;57.126;24.288;2023-07-31T05:19:48;100661.69;;;17.94;100.00
51781;BME280;37844;57.126;24.288;2023-07-31T05:22:32;100660.56;;;18.06;100.00
51781;BME280;37844;57.126;24.288;2023-07-31T05:25:16;100667.94;;;18.29;100.00
51781;BME280;37844;57.126;24.288;2023-07-31T05:28:00;100667.47;;;18.52;100.00
51781;BME280;37844;57.126;24.288;2023-07-31T05:30:44;100661.81;;;18.72;100.00
51781;BME280;37844;57.126;24.288;2023-07-31T05:33:28;100657.06;;;18.91;100.00
51781;BME280;37844;57.126;24.288;2023-07-31T05:36:12;100647.69;;;19.19;100.00
51781;BME280;37844;57.126;24.288;2023-07-31T05:38:56;100649.09;;;19.33;100.00
51781;BME280;37844;57.126;24.288;2023-07-31T05:41:40;100647.22;;;19.39;100.00
51781;BME280;37844;57.126;24.288;2023-07-31T05:44:24;100646.25;;;19.43;100.00
51781;BME280;37844;57.126;24.288;2023-07-31T05:47:09;100651.75;;;19.31;100.00
51781;BME280;37844;57.126;24.288;2023-07-31T05:49:53;100641.78;;;19.47;100.00
51781;BME280;37844;57.126;24.288;2023-07-31T05:52:37;100644.66;;;19.72;100.00
51781;BME280;37844;57.126;24.288;2023-07-31T05:55:21;100640.91;;;19.81;100.00
51781;BME280;37844;57.126;24.288;2023-07-31T05:58:05;100640.88;;;20.15;100.00
51781;BME280;37844;57.126;24.288;2023-07-31T06:00:49;100637.47;;;20.71;100.00
51781;BME280;37844;57.126;24.288;2023-07-31T06:03:33;100636.25;;;21.09;100.00
51781;BME280;37844;57.126;24.288;2023-07-31T06:06:17;100644.72;;;21.19;100.00
51781;BME280;37844;57.126;24.288;2023-07-31T06:09:01;100637.03;;;20.86;100.00
51781;BME280;37844;57.126;24.288;2023-07-31T06:11:47;100624.47;;;20.96;100.00
51781;BME280;37844;57.126;24.288;2023-07-31T06:14:32;100633.75;;;21.33;100.00
51781;BME280;37844;57.126;24.288;2023-07-31T06:17:16;100635.41;;;21.35;100.00
51781;BME280;37844;57.126;24.288;2023-07-31T06:20:00;100630.50;;;21.26;100.00
51781;BME280;37844;57.126;24.288;2023-07-31T06:22:44;100634.31;;;21.43;100.00
51781;BME280;37844;57.126;24.288;2023-07-31T06:25:28;100631.38;;;21.52;100.00
51781;BME280;37844;57.126;24.288;2023-07-31T06:28:12;100629.63;;;22.02;100.00
51781;BME280;37844;57.126;24.288;2023-07-31T06:30:57;100626.38;;;23.11;100.00
51781;BME280;37844;57.126;24.288;2023-07-31T06:33:41;100635.38;;;23.88;100.00
51781;BME280;37844;57.126;24.288;2023-07-31T06:36:25;100634.50;;;23.26;100.00
51781;BME280;37844;57.126;24.288;2023-07-31T06:39:09;100639.97;;;23.42;100.00
51781;BME280;37844;57.126;24.288;2023-07-31T06:41:53;100626.88;;;24.02;100.00
51781;BME280;37844;57.126;24.288;2023-07-31T06:44:37;100639.19;;;23.40;100.00
51781;BME280;37844;57.126;24.288;2023-07-31T06:47:21;100635.41;;;22.81;100.00
51781;BME280;37844;57.126;24.288;2023-07-31T06:50:05;100631.66;;;22.18;100.00
51781;BME280;37844;57.126;24.288;2023-07-31T06:52:49;100635.53;;;21.84;100.00
51781;BME280;37844;57.126;24.288;2023-07-31T06:55:33;100635.44;;;22.11;100.00
51781;BME280;37844;57.126;24.288;2023-07-31T06:58:18;100630.28;;;21.84;100.00
51781;BME280;37844;57.126;24.288;2023-07-31T07:01:02;100632.84;;;21.60;100.00
51781;BME280;37844;57.126;24.288;2023-07-31T07:03:47;100642.25;;;21.66;100.00
51781;BME280;37844;57.126;24.288;2023-07-31T07:06:30;100630.91;;;22.39;100.00
51781;BME280;37844;57.126;24.288;2023-07-31T07:09:15;100638.84;;;22.38;100.00
51781;BME280;37844;57.126;24.288;2023-07-31T07:11:59;100651.38;;;21.81;100.00
51781;BME280;37844;57.126;24.288;2023-07-31T07:14:42;100656.31;;;21.65;100.00
51781;BME280;37844;57.126;24.288;2023-07-31T07:17:28;100638.19;;;22.08;100.00
51781;BME280;37844;57.126;24.288;2023-07-31T07:20:15;100634.09;;;22.48;100.00
51781;BME280;37844;57.126;24.288;2023-07-31T07:22:59;100637.25;;;23.23;100.00
51781;BME280;37844;57.126;24.288;2023-07-31T07:25:45;100633.78;;;24.43;100.00
51781;BME280;37844;57.126;24.288;2023-07-31T07:28:29;100631.34;;;24.00;100.00
51781;BME280;37844;57.126;24.288;2023-07-31T07:31:13;100633.41;;;23.73;100.00
51781;BME280;37844;57.126;24.288;2023-07-31T07:33:57;100629.56;;;24.59;100.00
51781;BME280;37844;57.126;24.288;2023-07-31T07:36:42;100619.25;;;26.76;100.00
51781;BME280;37844;57.126;24.288;2023-07-31T07:39:26;100628.66;;;27.12;98.33
51781;BME280;37844;57.126;24.288;2023-07-31T07:42:10;100632.03;;;27.60;92.72
51781;BME280;37844;57.126;24.288;2023-07-31T07:44:54;100634.03;;;26.31;92.31
51781;BME280;37844;57.126;24.288;2023-07-31T07:47:40;100639.28;;;25.12;97.31
51781;BME280;37844;57.126;24.288;2023-07-31T07:50:25;100635.50;;;24.44;100.00
51781;BME280;37844;57.126;24.288;2023-07-31T07:53:09;100636.59;;;24.78;100.00
51781;BME280;37844;57.126;24.288;2023-07-31T07:55:53;100626.50;;;25.22;100.00
51781;BME280;37844;57.126;24.288;2023-07-31T07:58:37;100623.47;;;24.76;100.00
51781;BME280;37844;57.126;24.288;2023-07-31T08:01:21;100618.84;;;24.24;100.00
51781;BME280;37844;57.126;24.288;2023-07-31T08:04:05;100618.00;;;23.64;100.00
51781;BME280;37844;57.126;24.288;2023-07-31T08:06:49;100626.53;;;23.48;100.00
51781;BME280;37844;57.126;24.288;2023-07-31T08:09:33;100617.94;;;24.44;100.00
51781;BME280;37844;57.126;24.288;2023-07-31T08:12:17;100618.41;;;25.60;100.00
51781;BME280;37844;57.126;24.288;2023-07-31T08:15:01;100606.25;;;26.24;100.00
51781;BME280;37844;57.126;24.288;2023-07-31T08:17:45;100600.41;;;27.57;92.57
51781;BME280;37844;57.126;24.288;2023-07-31T08:20:29;100595.72;;;27.77;83.45
51781;BME280;37844;57.126;24.288;2023-07-31T08:23:13;100609.56;;;27.96;81.58
51781;BME280;37844;57.126;24.288;2023-07-31T08:25:57;100600.75;;;27.67;78.70
51781;BME280;37844;57.126;24.288;2023-07-31T08:28:41;100610.06;;;27.44;80.25
51781;BME280;37844;57.126;24.288;2023-07-31T08:31:25;100604.84;;;27.42;74.43
51781;BME280;37844;57.126;24.288;2023-07-31T08:34:10;100606.63;;;28.15;75.03
51781;BME280;37844;57.126;24.288;2023-07-31T08:36:55;100616.31;;;27.57;74.21
51781;BME280;37844;57.126;24.288;2023-07-31T08:39:39;100611.47;;;27.49;74.15
51781;BME280;37844;57.126;24.288;2023-07-31T08:42:23;100613.84;;;26.30;76.01
51781;BME280;37844;57.126;24.288;2023-07-31T08:45:09;100619.66;;;25.53;83.16
51781;BME280;37844;57.126;24.288;2023-07-31T08:47:56;100616.78;;;25.92;86.87
51781;BME280;37844;57.126;24.288;2023-07-31T08:50:42;100623.06;;;26.39;86.44
51781;BME280;37844;57.126;24.288;2023-07-31T08:53:26;100619.03;;;26.65;86.38
51781;BME280;37844;57.126;24.288;2023-07-31T08:56:11;100624.50;;;27.08;82.32
51781;BME280;37844;57.126;24.288;2023-07-31T08:58:56;100617.84;;;27.01;75.48
51781;BME280;37844;57.126;24.288;2023-07-31T09:01:44;100621.47;;;27.14;77.05
51781;BME280;37844;57.126;24.288;2023-07-31T09:04:33;100610.81;;;27.32;75.47
51781;BME280;37844;57.126;24.288;2023-07-31T09:07:17;100619.34;;;27.51;75.78
51781;BME280;37844;57.126;24.288;2023-07-31T09:10:01;100608.03;;;27.03;74.70
51781;BME280;37844;57.126;24.288;2023-07-31T09:12:46;100605.53;;;26.70;78.65
51781;BME280;37844;57.126;24.288;2023-07-31T09:15:31;100615.59;;;26.63;77.29
51781;BME280;37844;57.126;24.288;2023-07-31T09:18:15;100610.88;;;26.36;76.39
51781;BME280;37844;57.126;24.288;2023-07-31T09:21:03;100609.28;;;25.50;78.08
51781;BME280;37844;57.126;24.288;2023-07-31T09:23:48;100625.91;;;24.62;78.44
51781;BME280;37844;57.126;24.288;2023-07-31T09:26:33;100624.69;;;23.91;83.75
51781;BME280;37844;57.126;24.288;2023-07-31T09:29:19;100617.91;;;23.65;86.94
51781;BME280;37844;57.126;24.288;2023-07-31T09:32:03;100629.66;;;23.16;91.02
51781;BME280;37844;57.126;24.288;2023-07-31T09:34:48;100633.78;;;23.01;92.74
51781;BME280;37844;57.126;24.288;2023-07-31T09:37:31;100637.84;;;22.64;93.67
51781;BME280;37844;57.126;24.288;2023-07-31T09:40:30;100645.94;;;22.36;98.87
51781;BME280;37844;57.126;24.288;2023-07-31T09:43:21;100650.75;;;22.23;100.00
51781;BME280;37844;57.126;24.288;2023-07-31T09:46:13;100656.44;;;22.11;100.00
51781;BME280;37844;57.126;24.288;2023-07-31T09:49:10;100658.06;;;21.90;100.00
51781;BME280;37844;57.126;24.288;2023-07-31T09:51:55;100664.03;;;21.70;100.00
51781;BME280;37844;57.126;24.288;2023-07-31T09:54:39;100665.09;;;21.64;100.00
51781;BME280;37844;57.126;24.288;2023-07-31T09:57:26;100671.97;;;21.42;100.00
51781;BME280;37844;57.126;24.288;2023-07-31T10:00:17;100671.19;;;21.38;100.00
51781;BME280;37844;57.126;24.288;2023-07-31T10:03:07;100667.75;;;21.36;100.00
51781;BME280;37844;57.126;24.288;2023-07-31T10:05:53;100668.41;;;21.43;100.00
51781;BME280;37844;57.126;24.288;2023-07-31T10:08:39;100670.47;;;21.33;100.00
51781;BME280;37844;57.126;24.288;2023-07-31T10:11:24;100683.66;;;21.03;100.00
51781;BME280;37844;57.126;24.288;2023-07-31T10:14:11;100699.59;;;20.67;100.00
51781;BME280;37844;57.126;24.288;2023-07-31T10:16:57;100696.75;;;20.44;100.00
51781;BME280;37844;57.126;24.288;2023-07-31T10:19:43;100691.81;;;20.33;100.00
51781;BME280;37844;57.126;24.288;2023-07-31T10:22:27;100694.88;;;20.18;100.00
51781;BME280;37844;57.126;24.288;2023-07-31T10:25:12;100682.78;;;20.12;100.00
51781;BME280;37844;57.126;24.288;2023-07-31T10:27:57;100689.53;;;19.89;100.00
51781;BME280;37844;57.126;24.288;2023-07-31T10:30:41;100695.66;;;19.88;100.00
51781;BME280;37844;57.126;24.288;2023-07-31T10:33:26;100706.66;;;20.01;100.00
51781;BME280;37844;57.126;24.288;2023-07-31T10:36:17;100684.00;;;20.00;100.00
51781;BME280;37844;57.126;24.288;2023-07-31T10:39:03;100684.81;;;19.69;100.00
51781;BME280;37844;57.126;24.288;2023-07-31T10:41:48;100670.16;;;19.62;100.00
51781;BME280;37844;57.126;24.288;2023-07-31T10:44:33;100676.59;;;19.49;100.00
51781;BME280;37844;57.126;24.288;2023-07-31T10:47:17;100681.63;;;19.57;100.00
51781;BME280;37844;57.126;24.288;2023-07-31T10:50:22;100674.59;;;19.59;100.00
51781;BME280;37844;57.126;24.288;2023-07-31T10:53:25;100659.94;;;19.53;100.00
51781;BME280;37844;57.126;24.288;2023-07-31T10:56:10;100662.16;;;19.67;100.00
51781;BME280;37844;57.126;24.288;2023-07-31T10:59:02;100651.50;;;19.76;100.00
51781;BME280;37844;57.126;24.288;2023-07-31T11:01:56;100631.16;;;19.87;100.00
51781;BME280;37844;57.126;24.288;2023-07-31T11:05:05;100630.50;;;19.79;100.00
51781;BME280;37844;57.126;24.288;2023-07-31T11:07:49;100621.22;;;19.67;100.00
51781;BME280;37844;57.126;24.288;2023-07-31T11:10:34;100638.38;;;19.79;100.00
51781;BME280;37844;57.126;24.288;2023-07-31T11:13:18;100629.56;;;19.82;100.00
51781;BME280;37844;57.126;24.288;2023-07-31T11:16:02;100630.09;;;19.95;100.00
51781;BME280;37844;57.126;24.288;2023-07-31T11:18:47;100624.25;;;20.16;100.00
51781;BME280;37844;57.126;24.288;2023-07-31T11:21:32;100634.81;;;20.43;100.00
51781;BME280;37844;57.126;24.288;2023-07-31T11:24:16;100629.06;;;20.31;100.00
51781;BME280;37844;57.126;24.288;2023-07-31T11:27:07;100643.88;;;20.31;100.00
51781;BME280;37844;57.126;24.288;2023-07-31T11:29:51;100638.16;;;20.18;100.00
51781;BME280;37844;57.126;24.288;2023-07-31T11:32:36;100624.69;;;20.30;100.00
51781;BME280;37844;57.126;24.288;2023-07-31T11:35:20;100620.75;;;20.45;100.00
51781;BME280;37844;57.126;24.288;2023-07-31T11:38:05;100631.41;;;20.41;100.00
51781;BME280;37844;57.126;24.288;2023-07-31T11:40:49;100636.25;;;20.53;100.00
51781;BME280;37844;57.126;24.288;2023-07-31T11:43:33;100631.25;;;20.75;100.00
51781;BME280;37844;57.126;24.288;2023-07-31T11:46:20;100614.31;;;20.85;100.00
51781;BME280;37844;57.126;24.288;2023-07-31T11:49:04;100623.53;;;20.99;100.00
51781;BME280;37844;57.126;24.288;2023-07-31T11:51:48;100622.84;;;20.92;100.00
51781;BME280;37844;57.126;24.288;2023-07-31T11:54:32;100619.03;;;21.02;100.00
51781;BME280;37844;57.126;24.288;2023-07-31T11:57:18;100613.59;;;21.08;100.00
51781;BME280;37844;57.126;24.288;2023-07-31T12:00:03;100610.50;;;21.24;100.00
51781;BME280;37844;57.126;24.288;2023-07-31T12:02:48;100589.56;;;21.22;100.00
51781;BME280;37844;57.126;24.288;2023-07-31T12:05:39;100601.03;;;21.18;100.00
51781;BME280;37844;57.126;24.288;2023-07-31T12:08:24;100601.91;;;21.18;100.00
51781;BME280;37844;57.126;24.288;2023-07-31T12:11:09;100608.88;;;21.20;100.00
51781;BME280;37844;57.126;24.288;2023-07-31T12:13:53;100595.78;;;21.18;100.00
51781;BME280;37844;57.126;24.288;2023-07-31T12:16:37;100592.97;;;21.24;100.00
51781;BME280;37844;57.126;24.288;2023-07-31T12:19:22;100589.72;;;21.17;100.00
51781;BME280;37844;57.126;24.288;2023-07-31T12:22:14;100601.28;;;21.37;100.00
51781;BME280;37844;57.126;24.288;2023-07-31T12:24:59;100597.19;;;21.28;100.00
51781;BME280;37844;57.126;24.288;2023-07-31T12:27:46;100595.34;;;21.32;100.00
51781;BME280;37844;57.126;24.288;2023-07-31T12:30:34;100607.63;;;21.30;100.00
51781;BME280;37844;57.126;24.288;2023-07-31T12:33:19;100599.03;;;21.26;100.00
51781;BME280;37844;57.126;24.288;2023-07-31T12:36:08;100600.38;;;21.38;100.00
51781;BME280;37844;57.126;24.288;2023-07-31T12:38:52;100600.06;;;21.47;100.00
51781;BME280;37844;57.126;24.288;2023-07-31T12:41:37;100592.97;;;21.51;100.00
51781;BME280;37844;57.126;24.288;2023-07-31T12:44:21;100594.63;;;21.53;100.00
51781;BME280;37844;57.126;24.288;2023-07-31T12:47:05;100591.19;;;21.51;100.00
51781;BME280;37844;57.126;24.288;2023-07-31T12:49:49;100592.38;;;21.68;100.00
51781;BME280;37844;57.126;24.288;2023-07-31T12:52:33;100585.44;;;21.67;100.00
51781;BME280;37844;57.126;24.288;2023-07-31T12:55:17;100582.44;;;21.52;100.00
51781;BME280;37844;57.126;24.288;2023-07-31T12:58:03;100584.75;;;21.35;100.00
51781;BME280;37844;57.126;24.288;2023-07-31T13:00:47;100584.63;;;21.39;100.00
51781;BME280;37844;57.126;24.288;2023-07-31T13:03:31;100581.84;;;21.44;100.00
51781;BME280;37844;57.126;24.288;2023-07-31T13:06:15;100582.81;;;21.42;100.00
51781;BME280;37844;57.126;24.288;2023-07-31T13:08:59;100566.78;;;21.49;100.00
51781;BME280;37844;57.126;24.288;2023-07-31T13:11:44;100574.41;;;21.57;100.00
51781;BME280;37844;57.126;24.288;2023-07-31T13:14:28;100580.88;;;21.72;100.00
51781;BME280;37844;57.126;24.288;2023-07-31T13:17:12;100592.34;;;21.69;100.00
51781;BME280;37844;57.126;24.288;2023-07-31T13:19:56;100573.09;;;21.69;100.00
51781;BME280;37844;57.126;24.288;2023-07-31T13:22:40;100574.31;;;21.84;100.00
51781;BME280;37844;57.126;24.288;2023-07-31T13:25:24;100584.13;;;21.78;100.00
51781;BME280;37844;57.126;24.288;2023-07-31T13:28:08;100580.91;;;21.70;100.00
51781;BME280;37844;57.126;24.288;2023-07-31T13:30:52;100583.53;;;21.70;100.00
51781;BME280;37844;57.126;24.288;2023-07-31T13:33:36;100590.22;;;21.79;100.00
51781;BME280;37844;57.126;24.288;2023-07-31T13:36:21;100584.91;;;21.80;100.00
51781;BME280;37844;57.126;24.288;2023-07-31T13:39:05;100584.53;;;21.91;100.00
51781;BME280;37844;57.126;24.288;2023-07-31T13:41:49;100579.78;;;22.01;100.00
51781;BME280;37844;57.126;24.288;2023-07-31T13:44:36;100580.44;;;22.08;100.00
51781;BME280;37844;57.126;24.288;2023-07-31T13:47:20;100589.78;;;22.15;100.00
51781;BME280;37844;57.126;24.288;2023-07-31T13:50:04;100581.28;;;22.08;100.00
51781;BME280;37844;57.126;24.288;2023-07-31T13:52:49;100581.75;;;21.96;100.00
51781;BME280;37844;57.126;24.288;2023-07-31T13:55:32;100582.66;;;21.95;100.00
51781;BME280;37844;57.126;24.288;2023-07-31T13:58:17;100581.16;;;21.88;100.00
51781;BME280;37844;57.126;24.288;2023-07-31T14:01:01;100586.59;;;21.83;100.00
51781;BME280;37844;57.126;24.288;2023-07-31T14:03:45;100582.94;;;21.87;100.00
51781;BME280;37844;57.126;24.288;2023-07-31T14:06:29;100584.25;;;21.99;100.00
51781;BME280;37844;57.126;24.288;2023-07-31T14:09:13;100582.28;;;22.04;100.00